Hua-lien, Taiwan
Current Conditions -  °F | °C
As of 7:30 AM on Wednesday 22 Oct 2014 (Local Time) from RCMQ Reporting Station
Scattered Clouds Scattered Clouds  
Wind Chill: 79°   Ceiling: Unl
Heat Index: 81°   Visibility: 6mi
Dew Point: 64°   Wind: 9mph
Humidity: 61%   Direction: 20°NNE
Pressure: 29.97"   Gusts: NA
Location:  24.02°N, 121.62°E
Report Text: RCMQ 212330Z 02008KT 9000 FEW010 SCT080 26/18 Q1015 NOSIG RMK A3000
Loading
Personal Weather Stations






























Interactive Weather Map
Tropical Storm Tracking
New forecast layout! Learn more

10-Day Weather Forecast

Advertisements
Track Severe Weather on mobile